Time;durP1;ratioP1;P1;durP2;ratioP2;P2;SDS_P1;SDS_P2;PMS_P1;PMS_P2;Temp;Humidity;BMP_temperature;BMP_pressure;BME280_temperature;BME280_humidity;BME280_pressure;Samples;Min_cycle;Max_cycle;Signal;HPM_P1;HPM_P2
2022/02/22 00:01:48;;;;;;;11.93;6.07;;;;;;;;;;5075003;28;20119;-68
2022/02/22 00:04:14;;;;;;;12.07;6.70;;;;;;;;;;5074938;28;20020;-67
2022/02/22 00:06:40;;;;;;;13.20;7.55;;;;;;;;;;5092753;28;20372;-66
2022/02/22 00:09:06;;;;;;;14.38;7.72;;;;;;;;;;5093033;28;20115;-66
2022/02/22 00:11:33;;;;;;;15.00;8.27;;;;;;;;;;5092970;28;20068;-66
2022/02/22 00:13:59;;;;;;;15.25;8.52;;;;;;;;;;5071240;28;20048;-67
2022/02/22 00:16:25;;;;;;;14.43;8.30;;;;;;;;;;5071533;28;20457;-67
2022/02/22 00:18:52;;;;;;;15.70;8.93;;;;;;;;;;5072767;28;20053;-67
2022/02/22 00:21:18;;;;;;;17.10;8.25;;;;;;;;;;5072758;28;20206;-67
2022/02/22 00:23:45;;;;;;;16.17;8.23;;;;;;;;;;5073443;28;20035;-66
2022/02/22 00:26:11;;;;;;;14.43;8.50;;;;;;;;;;5076723;28;20031;-67
2022/02/22 00:28:37;;;;;;;11.30;7.22;;;;;;;;;;5075308;28;20033;-67
2022/02/22 00:31:03;;;;;;;12.07;7.28;;;;;;;;;;5075308;28;20064;-67
2022/02/22 00:33:29;;;;;;;10.75;6.70;;;;;;;;;;5075274;28;20457;-68
2022/02/22 00:35:56;;;;;;;10.82;6.25;;;;;;;;;;5076543;28;20028;-68
2022/02/22 00:38:23;;;;;;;11.68;6.53;;;;;;;;;;5076493;28;20032;-68
2022/02/22 00:40:49;;;;;;;9.85;6.22;;;;;;;;;;5074864;28;20029;-68
2022/02/22 00:43:15;;;;;;;13.65;6.13;;;;;;;;;;5076610;28;20037;-68
2022/02/22 00:45:42;;;;;;;10.70;6.05;;;;;;;;;;5076264;28;20028;-69
2022/02/22 00:48:08;;;;;;;7.25;5.30;;;;;;;;;;5076257;28;20107;-69
2022/02/22 00:50:34;;;;;;;10.15;5.40;;;;;;;;;;5076250;28;20060;-68
2022/02/22 00:53:01;;;;;;;9.43;5.55;;;;;;;;;;5075855;28;20388;-68
2022/02/22 00:55:27;;;;;;;8.55;5.60;;;;;;;;;;5075881;28;20031;-68
2022/02/22 00:57:53;;;;;;;9.30;6.50;;;;;;;;;;5076135;28;20465;-68
2022/02/22 01:00:20;;;;;;;9.13;5.93;;;;;;;;;;5076001;28;20031;-69
2022/02/22 01:02:47;;;;;;;10.82;5.63;;;;;;;;;;5076297;28;20064;-67
2022/02/22 01:05:14;;;;;;;10.05;5.40;;;;;;;;;;5075960;28;20028;-68
2022/02/22 01:07:40;;;;;;;9.15;5.00;;;;;;;;;;5075935;28;20021;-68
2022/02/22 01:10:07;;;;;;;9.60;5.82;;;;;;;;;;5075917;28;20060;-68
2022/02/22 01:12:33;;;;;;;10.63;6.43;;;;;;;;;;5075839;28;20039;-66
2022/02/22 01:14:59;;;;;;;12.63;6.68;;;;;;;;;;5087265;28;20048;-66
2022/02/22 01:17:26;;;;;;;11.93;5.78;;;;;;;;;;5096057;28;20031;-65
2022/02/22 01:19:52;;;;;;;12.15;6.68;;;;;;;;;;5096036;28;20066;-68
2022/02/22 01:22:18;;;;;;;10.48;5.68;;;;;;;;;;5095941;28;20103;-67
2022/02/22 01:24:44;;;;;;;11.70;5.97;;;;;;;;;;5095903;28;20034;-68
2022/02/22 01:27:10;;;;;;;12.07;6.80;;;;;;;;;;5096109;28;20031;-67
2022/02/22 01:29:37;;;;;;;13.10;6.38;;;;;;;;;;5095735;28;20028;-67
2022/02/22 01:32:03;;;;;;;14.63;6.55;;;;;;;;;;5095774;28;20141;-68
2022/02/22 01:34:29;;;;;;;7.90;5.47;;;;;;;;;;5095587;28;20107;-67
2022/02/22 01:36:55;;;;;;;13.60;7.22;;;;;;;;;;5095932;28;20035;-67
2022/02/22 01:39:22;;;;;;;12.55;6.60;;;;;;;;;;5077330;28;20066;-67
2022/02/22 01:41:48;;;;;;;9.27;5.80;;;;;;;;;;5095657;28;20047;-66
2022/02/22 01:44:15;;;;;;;12.38;6.00;;;;;;;;;;5095518;28;20031;-66
2022/02/22 01:46:41;;;;;;;12.15;6.10;;;;;;;;;;5077240;28;20027;-65
2022/02/22 01:49:08;;;;;;;10.52;5.88;;;;;;;;;;5095429;28;20388;-66
2022/02/22 01:51:34;;;;;;;9.10;5.53;;;;;;;;;;5095290;28;20496;-66
2022/02/22 01:54:00;;;;;;;6.70;5.03;;;;;;;;;;5077088;28;20032;-66
2022/02/22 01:56:26;;;;;;;10.55;5.57;;;;;;;;;;5077427;28;20413;-66
2022/02/22 01:58:53;;;;;;;8.82;5.78;;;;;;;;;;5094918;28;20427;-65
2022/02/22 02:01:19;;;;;;;9.65;5.55;;;;;;;;;;5094874;28;20369;-66
2022/02/22 02:03:47;;;;;;;9.98;6.05;;;;;;;;;;5095150;28;20077;-66
2022/02/22 02:06:14;;;;;;;9.23;6.18;;;;;;;;;;5095118;28;20024;-65
2022/02/22 02:08:40;;;;;;;9.63;5.47;;;;;;;;;;5094762;28;20028;-66
2022/02/22 02:11:10;;;;;;;8.15;5.45;;;;;;;;;;5094918;28;20028;-66
2022/02/22 02:13:36;;;;;;;11.48;5.60;;;;;;;;;;5094704;28;20102;-66
2022/02/22 02:16:03;;;;;;;8.52;5.07;;;;;;;;;;5094852;28;20111;-66
2022/02/22 02:18:29;;;;;;;7.68;4.57;;;;;;;;;;5094860;28;20364;-66
2022/02/22 02:20:56;;;;;;;10.40;4.88;;;;;;;;;;5076537;28;20123;-65
2022/02/22 02:23:22;;;;;;;11.68;4.40;;;;;;;;;;5076504;28;20031;-66
2022/02/22 02:25:48;;;;;;;7.90;5.05;;;;;;;;;;5094418;28;20031;-67
2022/02/22 02:28:14;;;;;;;5.68;4.30;;;;;;;;;;5094674;28;20020;-67
2022/02/22 02:30:42;;;;;;;5.05;4.03;;;;;;;;;;5094596;28;20027;-67
2022/02/22 02:33:08;;;;;;;8.43;3.97;;;;;;;;;;5076396;28;20492;-67
2022/02/22 02:35:34;;;;;;;3.83;3.35;;;;;;;;;;5094481;28;20020;-67
2022/02/22 02:38:00;;;;;;;6.57;4.03;;;;;;;;;;5076166;28;20026;-66
2022/02/22 02:40:27;;;;;;;5.57;3.72;;;;;;;;;;5076170;28;20032;-66
2022/02/22 02:42:53;;;;;;;6.63;3.55;;;;;;;;;;5076236;28;20122;-67
2022/02/22 02:45:22;;;;;;;7.30;4.03;;;;;;;;;;5094277;28;20020;-66
2022/02/22 02:47:48;;;;;;;4.85;3.78;;;;;;;;;;5093542;28;20036;-65
2022/02/22 02:50:14;;;;;;;10.63;4.35;;;;;;;;;;5076043;28;20020;-65
2022/02/22 02:52:41;;;;;;;6.30;3.90;;;;;;;;;;5094135;28;20119;-65
2022/02/22 02:55:07;;;;;;;7.28;4.13;;;;;;;;;;5075947;28;20061;-65
2022/02/22 02:57:36;;;;;;;8.45;3.88;;;;;;;;;;5094396;28;20067;-66
2022/02/22 03:00:04;;;;;;;5.32;3.60;;;;;;;;;;5094032;28;20024;-66
2022/02/22 03:02:30;;;;;;;6.32;3.35;;;;;;;;;;5093743;28;20392;-65
2022/02/22 03:04:59;;;;;;;5.75;3.75;;;;;;;;;;5075736;28;20034;-65
2022/02/22 03:07:29;;;;;;;5.95;3.80;;;;;;;;;;5093654;28;20464;-66
2022/02/22 03:09:55;;;;;;;3.45;3.03;;;;;;;;;;5093889;28;20024;-67
2022/02/22 03:12:21;;;;;;;4.63;3.25;;;;;;;;;;5093754;28;20491;-66
2022/02/22 03:14:49;;;;;;;7.57;3.70;;;;;;;;;;5093297;28;20445;-67
2022/02/22 03:17:15;;;;;;;6.90;4.32;;;;;;;;;;5075602;28;20039;-65
2022/02/22 03:19:41;;;;;;;6.10;3.80;;;;;;;;;;5093701;28;20472;-66
2022/02/22 03:22:07;;;;;;;4.57;3.08;;;;;;;;;;5093729;28;20036;-65
2022/02/22 03:24:34;;;;;;;4.90;2.97;;;;;;;;;;5075408;28;20118;-66
2022/02/22 03:27:00;;;;;;;5.72;2.85;;;;;;;;;;5093583;28;20024;-66
2022/02/22 03:29:26;;;;;;;5.00;3.10;;;;;;;;;;5093590;28;20071;-65
2022/02/22 03:31:52;;;;;;;6.53;2.95;;;;;;;;;;5093457;28;20119;-65
2022/02/22 03:34:18;;;;;;;6.35;3.47;;;;;;;;;;5074972;28;20028;-67
2022/02/22 03:36:44;;;;;;;7.88;4.15;;;;;;;;;;5075259;28;20089;-67
2022/02/22 03:39:11;;;;;;;8.23;4.13;;;;;;;;;;5093426;28;20020;-67
2022/02/22 03:41:37;;;;;;;5.28;3.38;;;;;;;;;;5075178;28;20036;-69
2022/02/22 03:44:03;;;;;;;7.68;3.42;;;;;;;;;;5093366;28;20028;-67
2022/02/22 03:46:32;;;;;;;7.10;3.80;;;;;;;;;;5075144;28;20050;-69
2022/02/22 03:48:59;;;;;;;8.85;4.10;;;;;;;;;;5093232;28;20024;-68
2022/02/22 03:51:25;;;;;;;8.38;4.03;;;;;;;;;;5093120;28;20038;-68
2022/02/22 03:53:51;;;;;;;6.75;4.15;;;;;;;;;;5093247;28;20069;-67
2022/02/22 03:56:17;;;;;;;6.07;3.42;;;;;;;;;;5075022;28;20131;-69
2022/02/22 03:58:44;;;;;;;5.22;3.13;;;;;;;;;;5093353;28;20036;-69
2022/02/22 04:01:10;;;;;;;8.20;3.50;;;;;;;;;;5075022;28;20153;-68
2022/02/22 04:03:37;;;;;;;7.80;3.80;;;;;;;;;;5093223;28;20055;-68
2022/02/22 04:06:03;;;;;;;7.45;4.10;;;;;;;;;;5074977;28;20024;-68
2022/02/22 04:08:29;;;;;;;5.45;3.28;;;;;;;;;;5093386;28;20028;-68
2022/02/22 04:10:55;;;;;;;6.45;3.90;;;;;;;;;;5074813;28;20035;-68
2022/02/22 04:13:21;;;;;;;5.68;3.92;;;;;;;;;;5074577;28;20020;-67
2022/02/22 04:15:48;;;;;;;6.15;3.45;;;;;;;;;;5074408;28;20052;-68
2022/02/22 04:18:14;;;;;;;5.63;3.55;;;;;;;;;;5074866;28;20105;-69
2022/02/22 04:20:40;;;;;;;5.70;3.38;;;;;;;;;;5093281;28;20111;-69
2022/02/22 04:23:06;;;;;;;6.13;3.83;;;;;;;;;;5092948;28;20052;-69
2022/02/22 04:25:32;;;;;;;7.78;4.30;;;;;;;;;;5074739;28;20024;-67
2022/02/22 04:27:59;;;;;;;5.43;3.83;;;;;;;;;;5092891;28;20020;-67
2022/02/22 04:30:25;;;;;;;5.57;3.70;;;;;;;;;;5093151;28;20032;-68
2022/02/22 04:32:51;;;;;;;7.78;3.58;;;;;;;;;;5092776;28;20057;-68
2022/02/22 04:35:18;;;;;;;10.25;4.63;;;;;;;;;;5092842;28;20051;-67
2022/02/22 04:37:44;;;;;;;7.00;4.20;;;;;;;;;;5074555;28;20028;-67
2022/02/22 04:40:10;;;;;;;6.57;4.03;;;;;;;;;;5092786;28;20047;-66
2022/02/22 04:42:37;;;;;;;7.45;4.70;;;;;;;;;;5092815;28;20165;-66
2022/02/22 04:45:03;;;;;;;6.53;3.92;;;;;;;;;;5092748;28;20024;-66
2022/02/22 04:47:30;;;;;;;8.20;4.53;;;;;;;;;;5092757;28;20017;-66
2022/02/22 04:49:56;;;;;;;7.05;4.35;;;;;;;;;;5092470;28;20024;-66
2022/02/22 04:52:22;;;;;;;6.78;3.80;;;;;;;;;;5074546;28;20043;-67
2022/02/22 04:54:48;;;;;;;6.00;3.72;;;;;;;;;;5092680;28;20017;-68
2022/02/22 04:57:15;;;;;;;7.00;4.68;;;;;;;;;;5092653;28;20062;-68
2022/02/22 04:59:41;;;;;;;7.88;4.18;;;;;;;;;;5092628;28;20384;-67
2022/02/22 05:02:07;;;;;;;7.20;3.95;;;;;;;;;;5074358;28;20164;-68
2022/02/22 05:04:33;;;;;;;5.07;3.70;;;;;;;;;;5092885;28;20024;-66
2022/02/22 05:07:00;;;;;;;6.93;4.45;;;;;;;;;;5074316;28;20473;-66
2022/02/22 05:09:26;;;;;;;5.75;4.07;;;;;;;;;;5092693;28;20102;-66
2022/02/22 05:11:52;;;;;;;6.20;3.92;;;;;;;;;;5096004;28;20028;-66
2022/02/22 05:14:18;;;;;;;8.75;4.68;;;;;;;;;;5095734;28;20127;-66
2022/02/22 05:16:44;;;;;;;10.77;5.38;;;;;;;;;;5077536;28;20109;-66
2022/02/22 05:19:11;;;;;;;11.15;4.75;;;;;;;;;;5095689;28;20487;-66
2022/02/22 05:21:37;;;;;;;7.63;5.15;;;;;;;;;;5093720;28;20054;-66
2022/02/22 05:24:03;;;;;;;14.27;6.00;;;;;;;;;;5091625;28;20016;-69
2022/02/22 05:26:30;;;;;;;13.52;6.28;;;;;;;;;;5076774;28;20076;-65
2022/02/22 05:28:56;;;;;;;9.98;5.10;;;;;;;;;;5077053;28;20120;-64
2022/02/22 05:31:23;;;;;;;9.43;5.45;;;;;;;;;;5077076;28;20028;-66
2022/02/22 05:33:49;;;;;;;10.20;5.55;;;;;;;;;;5077223;28;20027;-65
2022/02/22 05:36:15;;;;;;;12.57;6.68;;;;;;;;;;5095346;28;20107;-65
2022/02/22 05:38:41;;;;;;;16.95;6.50;;;;;;;;;;5095451;28;20085;-65
2022/02/22 05:41:07;;;;;;;20.30;9.70;;;;;;;;;;5095268;28;20031;-65
2022/02/22 05:43:34;;;;;;;22.23;10.88;;;;;;;;;;5095200;28;20097;-65
2022/02/22 05:46:00;;;;;;;12.90;7.20;;;;;;;;;;5076552;28;20055;-65
2022/02/22 05:48:26;;;;;;;13.70;7.32;;;;;;;;;;5076540;28;20081;-65
2022/02/22 05:50:52;;;;;;;8.68;5.90;;;;;;;;;;5076646;28;20031;-65
2022/02/22 05:53:19;;;;;;;23.02;9.35;;;;;;;;;;5076833;28;20107;-65
2022/02/22 05:55:45;;;;;;;22.85;10.40;;;;;;;;;;5094569;28;20157;-64
2022/02/22 05:58:11;;;;;;;50.22;20.17;;;;;;;;;;5087707;28;20438;-64
2022/02/22 06:00:37;;;;;;;45.80;21.08;;;;;;;;;;5106802;28;20038;-65
2022/02/22 06:03:03;;;;;;;324.98;123.65;;;;;;;;;;5106399;28;20031;-65
2022/02/22 06:05:30;;;;;;;83.93;39.42;;;;;;;;;;5105634;28;20051;-64
2022/02/22 06:07:59;;;;;;;133.73;66.32;;;;;;;;;;5112650;28;20031;-64
2022/02/22 06:10:28;;;;;;;296.55;117.60;;;;;;;;;;5115043;28;20031;-65
2022/02/22 06:12:54;;;;;;;352.02;123.35;;;;;;;;;;5114732;28;20031;-64
2022/02/22 06:15:22;;;;;;;283.20;109.95;;;;;;;;;;5096256;28;20047;-64
2022/02/22 06:17:48;;;;;;;304.95;104.47;;;;;;;;;;5096713;28;20034;-64
2022/02/22 06:20:15;;;;;;;207.35;74.82;;;;;;;;;;5114873;28;20108;-64
2022/02/22 06:22:41;;;;;;;131.23;47.75;;;;;;;;;;5100661;28;20046;-64
2022/02/22 06:25:08;;;;;;;255.27;105.35;;;;;;;;;;5104044;28;20034;-64
2022/02/22 06:27:45;;;;;;;88.03;41.72;;;;;;;;;;5103616;28;20024;-66
2022/02/22 06:30:11;;;;;;;95.45;46.90;;;;;;;;;;5114877;28;20483;-65
2022/02/22 06:32:37;;;;;;;92.35;47.17;;;;;;;;;;5096347;28;20190;-64
2022/02/22 06:35:03;;;;;;;40.92;24.17;;;;;;;;;;5114331;28;20098;-64
2022/02/22 06:37:30;;;;;;;19.67;12.38;;;;;;;;;;5115038;28;20031;-64
2022/02/22 06:39:56;;;;;;;15.82;8.63;;;;;;;;;;5114358;28;20387;-65
2022/02/22 06:42:22;;;;;;;9.05;5.63;;;;;;;;;;5096174;28;20028;-65
2022/02/22 06:44:48;;;;;;;7.63;2.83;;;;;;;;;;5114637;28;20023;-64
2022/02/22 06:47:14;;;;;;;28.73;22.70;;;;;;;;;;5114243;28;20414;-64
2022/02/22 06:49:41;;;;;;;18.08;14.35;;;;;;;;;;5095850;28;20070;-65
2022/02/22 06:52:07;;;;;;;7.90;4.95;;;;;;;;;;5095822;28;20074;-64
2022/02/22 06:54:33;;;;;;;13.75;7.60;;;;;;;;;;5114588;28;20051;-64
2022/02/22 06:56:59;;;;;;;13.85;5.70;;;;;;;;;;5096038;28;20451;-64
2022/02/22 06:59:26;;;;;;;13.27;6.80;;;;;;;;;;5114306;28;20031;-64
2022/02/22 07:01:52;;;;;;;14.57;6.25;;;;;;;;;;5114200;28;20035;-65
2022/02/22 07:04:18;;;;;;;11.57;6.00;;;;;;;;;;5099193;28;20030;-64
2022/02/22 07:06:44;;;;;;;11.07;5.00;;;;;;;;;;5075025;28;20119;-65
2022/02/22 07:09:10;;;;;;;41.05;20.80;;;;;;;;;;5093372;28;20490;-65
2022/02/22 07:11:37;;;;;;;17.23;10.68;;;;;;;;;;5093452;28;20028;-65
2022/02/22 07:14:03;;;;;;;20.27;10.80;;;;;;;;;;5093252;28;20098;-66
2022/02/22 07:16:29;;;;;;;34.30;22.73;;;;;;;;;;5093109;28;20377;-64
2022/02/22 07:18:56;;;;;;;16.35;9.32;;;;;;;;;;5093290;28;20522;-66
2022/02/22 07:21:23;;;;;;;39.63;25.83;;;;;;;;;;5093437;28;20042;-65
2022/02/22 07:23:50;;;;;;;17.42;9.65;;;;;;;;;;5075131;28;20119;-65
2022/02/22 07:26:19;;;;;;;18.00;10.00;;;;;;;;;;5093354;28;20051;-65
2022/02/22 07:28:45;;;;;;;13.52;7.38;;;;;;;;;;5093668;28;20035;-66
2022/02/22 07:31:12;;;;;;;9.80;6.22;;;;;;;;;;5076333;28;20020;-66
2022/02/22 07:33:39;;;;;;;11.93;6.95;;;;;;;;;;5093277;28;20487;-65
2022/02/22 07:36:06;;;;;;;9.25;6.60;;;;;;;;;;5092793;28;20369;-65
2022/02/22 07:38:32;;;;;;;10.27;5.80;;;;;;;;;;5093422;28;20111;-65
2022/02/22 07:40:59;;;;;;;8.77;6.10;;;;;;;;;;5091728;28;20028;-65
2022/02/22 07:43:25;;;;;;;7.45;5.70;;;;;;;;;;5092640;28;20024;-65
2022/02/22 07:45:51;;;;;;;10.73;6.30;;;;;;;;;;5091987;28;20539;-65
2022/02/22 07:48:17;;;;;;;13.75;5.47;;;;;;;;;;5093289;28;20032;-65
2022/02/22 07:50:51;;;;;;;24.90;13.82;;;;;;;;;;5093225;28;20104;-64
2022/02/22 07:53:17;;;;;;;22.75;12.27;;;;;;;;;;5091879;28;20304;-65
2022/02/22 07:55:44;;;;;;;13.52;8.35;;;;;;;;;;5093246;28;20024;-66
2022/02/22 07:58:11;;;;;;;11.43;6.88;;;;;;;;;;5093136;28;20478;-65
2022/02/22 08:00:37;;;;;;;12.35;6.55;;;;;;;;;;5093201;28;20028;-66
2022/02/22 08:03:04;;;;;;;12.45;7.30;;;;;;;;;;5093061;28;20110;-65
2022/02/22 08:05:30;;;;;;;13.68;8.05;;;;;;;;;;5093088;28;20107;-72
2022/02/22 08:07:56;;;;;;;12.25;6.95;;;;;;;;;;5093298;28;20024;-70
2022/02/22 08:10:22;;;;;;;17.25;8.45;;;;;;;;;;5074708;28;20028;-69
2022/02/22 08:12:51;;;;;;;15.07;10.00;;;;;;;;;;5074662;28;20127;-69
2022/02/22 08:15:17;;;;;;;25.02;13.70;;;;;;;;;;5074410;28;20641;-71
2022/02/22 08:17:43;;;;;;;25.98;13.07;;;;;;;;;;5074719;28;20031;-68
2022/02/22 08:20:10;;;;;;;20.25;10.45;;;;;;;;;;5092772;28;20103;-69
2022/02/22 08:22:37;;;;;;;19.08;10.20;;;;;;;;;;5074594;28;20032;-69
2022/02/22 08:25:03;;;;;;;16.95;7.80;;;;;;;;;;5092946;28;20048;-67
2022/02/22 08:27:29;;;;;;;10.10;5.85;;;;;;;;;;5074487;28;20078;-71
2022/02/22 08:29:56;;;;;;;14.00;6.13;;;;;;;;;;5074529;28;20020;-68
2022/02/22 08:32:22;;;;;;;10.38;6.00;;;;;;;;;;5092526;28;20123;-69
2022/02/22 08:34:48;;;;;;;19.15;6.90;;;;;;;;;;5092661;28;20032;-67
2022/02/22 08:37:15;;;;;;;11.27;5.03;;;;;;;;;;5074515;28;20047;-72
2022/02/22 08:39:42;;;;;;;12.23;5.75;;;;;;;;;;5092605;28;20024;-71
2022/02/22 08:42:10;;;;;;;10.77;5.25;;;;;;;;;;5074350;28;20119;-70
2022/02/22 08:44:37;;;;;;;12.73;5.38;;;;;;;;;;5075001;28;20419;-69
2022/02/22 08:47:03;;;;;;;13.27;6.20;;;;;;;;;;5096752;28;20612;-69
2022/02/22 08:49:29;;;;;;;6.57;4.72;;;;;;;;;;5096176;28;20023;-67
2022/02/22 08:51:55;;;;;;;14.40;7.40;;;;;;;;;;5096159;28;20043;-70
2022/02/22 08:54:22;;;;;;;8.35;4.57;;;;;;;;;;5078052;28;20024;-67
2022/02/22 08:56:48;;;;;;;11.10;5.07;;;;;;;;;;5096140;28;20449;-67
2022/02/22 08:59:15;;;;;;;8.73;4.57;;;;;;;;;;5096214;28;20024;-69
2022/02/22 09:01:41;;;;;;;8.48;4.97;;;;;;;;;;5096213;28;20140;-69
2022/02/22 09:04:07;;;;;;;38.45;22.50;;;;;;;;;;5077835;28;20032;-70
2022/02/22 09:06:33;;;;;;;12.55;7.03;;;;;;;;;;5077862;28;20036;-70
2022/02/22 09:09:00;;;;;;;9.77;4.88;;;;;;;;;;5077791;28;20115;-70
2022/02/22 09:11:26;;;;;;;17.00;10.60;;;;;;;;;;5095916;28;20089;-68
2022/02/22 09:13:52;;;;;;;18.15;8.50;;;;;;;;;;5095625;28;20041;-69
2022/02/22 09:16:18;;;;;;;7.00;4.30;;;;;;;;;;5077548;28;20024;-70
2022/02/22 09:18:45;;;;;;;12.75;6.30;;;;;;;;;;5077345;28;20020;-69
2022/02/22 09:21:11;;;;;;;12.38;4.22;;;;;;;;;;5095791;28;20028;-69
2022/02/22 09:23:39;;;;;;;13.48;5.65;;;;;;;;;;5077375;28;20097;-70
2022/02/22 09:26:05;;;;;;;14.00;7.85;;;;;;;;;;5095662;28;20031;-70
2022/02/22 09:28:31;;;;;;;18.38;8.05;;;;;;;;;;5095623;28;20028;-68
2022/02/22 09:30:57;;;;;;;5.72;3.40;;;;;;;;;;5077478;28;20034;-67
2022/02/22 09:33:24;;;;;;;30.60;16.52;;;;;;;;;;5077390;28;20040;-67
2022/02/22 09:35:50;;;;;;;26.95;17.48;;;;;;;;;;5077307;28;20073;-67
2022/02/22 09:38:16;;;;;;;12.88;5.50;;;;;;;;;;5092632;28;20043;-66
2022/02/22 09:40:42;;;;;;;11.18;5.55;;;;;;;;;;5076707;28;20024;-67
2022/02/22 09:43:09;;;;;;;8.50;5.57;;;;;;;;;;5095466;28;20046;-67
2022/02/22 09:45:35;;;;;;;12.80;6.15;;;;;;;;;;5095310;28;20062;-68
2022/02/22 09:48:04;;;;;;;9.07;4.32;;;;;;;;;;5095083;28;20024;-67
2022/02/22 09:50:32;;;;;;;12.23;7.85;;;;;;;;;;5076973;28;20110;-67
2022/02/22 09:52:58;;;;;;;15.77;6.18;;;;;;;;;;5076766;28;20536;-67
2022/02/22 09:55:24;;;;;;;12.63;5.60;;;;;;;;;;5094744;28;20119;-67
2022/02/22 09:57:51;;;;;;;14.88;7.45;;;;;;;;;;5095082;28;20020;-67
2022/02/22 10:00:19;;;;;;;10.55;4.82;;;;;;;;;;5095104;28;20028;-67
2022/02/22 10:02:45;;;;;;;11.93;8.10;;;;;;;;;;5094567;28;20366;-67
2022/02/22 10:05:31;;;;;;;7.15;4.70;;;;;;;;;;5095057;28;20380;-68
2022/02/22 10:07:58;;;;;;;7.78;4.93;;;;;;;;;;5095037;28;20028;-67
2022/02/22 10:10:34;;;;;;;9.10;3.97;;;;;;;;;;5102750;28;20027;-67
2022/02/22 10:13:00;;;;;;;9.55;5.10;;;;;;;;;;5094294;28;20052;-68
2022/02/22 10:15:27;;;;;;;10.73;5.00;;;;;;;;;;5094155;28;20485;-69
2022/02/22 10:17:53;;;;;;;10.32;5.20;;;;;;;;;;5094350;28;20035;-67
2022/02/22 10:20:20;;;;;;;6.82;3.83;;;;;;;;;;5093901;28;20171;-66
2022/02/22 10:22:47;;;;;;;9.50;4.97;;;;;;;;;;5094045;28;20036;-67
2022/02/22 10:25:13;;;;;;;6.35;4.47;;;;;;;;;;5093839;28;20027;-67
2022/02/22 10:27:43;;;;;;;11.82;5.95;;;;;;;;;;5093500;28;20138;-66
2022/02/22 10:30:29;;;;;;;4.05;2.80;;;;;;;;;;5093771;28;20024;-66
2022/02/22 10:32:56;;;;;;;50.15;25.05;;;;;;;;;;5079844;28;20101;-67
2022/02/22 10:35:29;;;;;;;21.80;10.45;;;;;;;;;;5094084;28;20024;-68
2022/02/22 10:37:55;;;;;;;25.08;12.77;;;;;;;;;;5093809;28;20027;-66
2022/02/22 10:40:28;;;;;;;12.15;6.13;;;;;;;;;;5093618;28;20055;-68
2022/02/22 10:42:54;;;;;;;15.63;9.13;;;;;;;;;;5093998;28;20055;-64
2022/02/22 10:45:21;;;;;;;24.65;16.20;;;;;;;;;;5092457;28;20024;-67
2022/02/22 10:47:47;;;;;;;14.30;8.80;;;;;;;;;;5093982;28;20091;-64
2022/02/22 10:50:14;;;;;;;5.40;4.60;;;12.00;94.80;;;;;;5092120;28;20028;-69
2022/02/22 10:52:40;;;;;;;23.75;16.85;;;11.90;92.00;;;;;;5092031;28;20036;-67
2022/02/22 10:55:06;;;;;;;16.52;9.98;;;11.20;92.50;;;;;;5092533;28;20035;-66
2022/02/22 10:57:33;;;;;;;6.65;5.15;;;;;;;;;;5093272;28;20161;-66
2022/02/22 10:59:59;;;;;;;8.43;3.55;;;;;;;;;;5093581;28;20024;-67
2022/02/22 11:02:25;;;;;;;6.65;5.32;;;12.10;99.90;;;;;;5093260;28;20085;-65
2022/02/22 11:04:55;;;;;;;5.57;4.43;;;12.80;88.60;;;;;;5092787;28;20381;-66
2022/02/22 11:07:23;;;;;;;12.38;8.70;;;11.90;89.60;;;;;;5092678;28;20028;-66
2022/02/22 11:09:50;;;;;;;8.70;5.57;;;11.40;91.30;;;;;;5092049;28;20120;-65
2022/02/22 11:12:22;;;;;;;10.82;5.82;;;11.20;97.60;;;;;;5092946;28;20032;-66
2022/02/22 11:14:48;;;;;;;5.47;3.50;;;;;;;;;;5092847;28;20408;-64
2022/02/22 11:17:17;;;;;;;8.00;5.43;;;;;;;;;;5092350;28;20020;-64
2022/02/22 11:19:45;;;;;;;8.32;5.82;;;;;;;;;;5074775;28;20081;-64
2022/02/22 11:22:20;;;;;;;14.48;8.20;;;11.10;92.60;;;;;;5092968;28;20051;-65
2022/02/22 11:24:47;;;;;;;15.57;9.00;;;11.50;92.30;;;;;;5093260;28;20024;-67
2022/02/22 11:27:23;;;;;;;19.17;13.57;;;12.50;89.40;;;;;;5072585;28;20055;-67
2022/02/22 11:29:56;;;;;;;27.40;16.67;;;11.90;89.60;;;;;;5112958;28;20020;-67
2022/02/22 11:32:23;;;;;;;16.38;11.88;;;;;;;;;;5105360;28;20040;-67
2022/02/22 11:34:49;;;;;;;16.35;10.23;;;;;;;;;;5113410;28;20015;-68
2022/02/22 11:37:17;;;;;;;27.98;17.33;;;;;;;;;;5094794;28;20020;-68
2022/02/22 11:39:43;;;;;;;10.80;7.47;;;;;;;;;;5113004;28;20103;-68
2022/02/22 11:42:17;;;;;;;14.88;12.70;;;;;;;;;;5094871;28;20027;-68
2022/02/22 11:44:43;;;;;;;10.27;5.78;;;;;;;;;;5113130;28;20404;-69
2022/02/22 11:47:15;;;;;;;6.97;4.13;;;;;;;;;;5112717;28;20490;-67
2022/02/22 11:49:48;;;;;;;8.23;5.88;;;11.20;99.90;;;;;;5113082;28;20024;-68
2022/02/22 11:52:14;;;;;;;7.30;4.50;;;;;;;;;;5098962;28;20039;-67
2022/02/22 11:54:42;;;;;;;5.25;3.22;;;13.20;85.10;;;;;;5092386;28;20028;-66
2022/02/22 11:57:16;;;;;;;9.27;5.22;;;13.50;78.90;;;;;;5092558;28;20051;-66
2022/02/22 11:59:52;;;;;;;8.95;5.15;;;12.60;82.40;;;;;;5092779;28;20089;-66
2022/02/22 12:02:32;;;;;;;5.03;4.10;;;11.90;83.40;;;;;;5092915;28;20034;-67
2022/02/22 12:05:00;;;;;;;8.15;6.13;;;11.30;86.80;;;;;;5092638;28;20042;-67
2022/02/22 12:07:30;;;;;;;12.02;6.55;;;;;;;;;;5092676;28;20073;-66
2022/02/22 12:09:57;;;;;;;13.57;5.80;;;;;;;;;;5092774;28;20047;-66
2022/02/22 12:12:24;;;;;;;8.45;5.55;;;;;;;;;;5092683;28;20070;-66
2022/02/22 12:14:55;;;;;;;12.77;5.75;;;;;;;;;;5092249;28;20192;-66
2022/02/22 12:17:21;;;;;;;7.57;4.30;;;11.00;91.50;;;;;;5092508;28;20020;-66
2022/02/22 12:19:52;;;;;;;6.88;3.10;;;11.60;90.40;;;;;;5094759;28;20072;-65
2022/02/22 12:22:19;;;;;;;10.20;5.25;;;;;;;;;;5078391;28;20108;-66
2022/02/22 12:24:45;;;;;;;11.93;6.28;;;;;;;;;;5096678;28;20024;-66
2022/02/22 12:27:11;;;;;;;6.40;3.55;;;;;;;;;;5096581;28;20066;-66
2022/02/22 12:29:38;;;;;;;6.03;3.47;;;;;;;;;;5096448;28;20195;-65
2022/02/22 12:32:04;;;;;;;4.43;2.60;;;;;;;;;;5078036;28;20407;-66
2022/02/22 12:34:31;;;;;;;4.65;3.08;;;;;;;;;;5078332;28;20043;-66
2022/02/22 12:37:00;;;;;;;6.13;3.22;;;;;;;;;;5108607;28;20023;-66
2022/02/22 12:39:34;;;;;;;7.65;4.35;;;11.50;99.90;;;;;;5116775;28;20043;-67
2022/02/22 12:42:02;;;;;;;7.45;4.38;;;12.60;87.20;;;;;;5116917;28;20024;-67
2022/02/22 12:44:29;;;;;;;5.25;2.42;;;14.90;80.40;;;;;;5098733;28;20023;-68
2022/02/22 12:46:58;;;;;;;3.75;2.22;;;13.60;79.10;;;;;;5092661;28;20036;-67
2022/02/22 12:49:25;;;;;;;5.07;2.80;;;12.70;81.90;;;;;;5102878;28;20047;-67
2022/02/22 12:51:58;;;;;;;3.10;2.20;;;12.50;84.30;;;;;;5106032;28;20090;-67
2022/02/22 12:54:24;;;;;;;7.40;3.17;;;;;;;;;;5107328;28;20080;-67
2022/02/22 12:56:58;;;;;;;4.65;2.13;;;12.50;83.90;;;;;;5096206;28;20024;-69
2022/02/22 12:59:33;;;;;;;5.50;2.47;;;14.80;76.50;;;;;;5078049;28;20023;-67
2022/02/22 13:02:05;;;;;;;8.52;2.45;;;13.70;77.50;;;;;;5096276;28;20136;-67
2022/02/22 13:04:38;;;;;;;4.03;1.80;;;13.00;80.10;;;;;;5096060;28;20469;-67
2022/02/22 13:07:11;;;;;;;4.68;2.30;;;12.30;80.10;;;;;;5096089;28;20099;-67
2022/02/22 13:09:37;;;;;;;6.63;2.25;;;11.90;81.80;;;;;;5096063;28;20020;-68
2022/02/22 13:12:04;;;;;;;6.57;2.42;;;12.90;80.10;;;;;;5095981;28;20036;-68
2022/02/22 13:14:45;;;;;;;5.03;1.60;;;13.10;78.70;;;;;;5095694;28;20093;-67
2022/02/22 13:17:13;;;;;;;5.03;2.08;;;14.40;75.70;;;;;;5077819;28;20095;-69
2022/02/22 13:19:42;;;;;;;3.30;1.90;;;15.60;71.70;;;;;;5095936;28;20028;-69
2022/02/22 13:22:10;;;;;;;3.40;2.03;;;;;;;;;;5077643;28;20036;-69
2022/02/22 13:24:40;;;;;;;2.08;1.33;;;15.60;69.70;;;;;;5077539;28;20088;-69
2022/02/22 13:27:07;;;;;;;1.13;1.13;;;14.50;69.80;;;;;;5096003;28;20028;-69
2022/02/22 13:29:33;;;;;;;14.70;6.10;;;;;;;;;;5095809;28;20030;-69
2022/02/22 13:32:04;;;;;;;14.73;6.95;;;16.00;70.60;;;;;;5094993;28;20081;-69
2022/02/22 13:34:32;;;;;;;7.28;4.47;;;;;;;;;;5077078;28;20028;-69
2022/02/22 13:36:59;;;;;;;3.85;2.63;;;17.70;64.20;;;;;;5095648;28;20453;-69
2022/02/22 13:39:25;;;;;;;4.75;2.80;;;14.90;70.80;;;;;;5095659;28;20107;-70
2022/02/22 13:41:57;;;;;;;8.10;3.05;;;13.50;72.80;;;;;;5077373;28;20024;-68
2022/02/22 13:44:36;;;;;;;5.78;2.83;;;12.90;75.40;;;;;;5095524;28;20028;-66
2022/02/22 13:47:04;;;;;;;6.30;3.10;;;12.60;76.00;;;;;;5094052;28;20058;-69
2022/02/22 13:49:44;;;;;;;13.57;8.82;;;12.70;76.90;;;;;;5100702;28;20032;-67
2022/02/22 13:52:11;;;;;;;4.80;4.27;;;13.00;74.10;;;;;;5095120;28;20028;-65
2022/02/22 13:54:37;;;;;;;7.97;5.72;;;12.60;73.90;;;;;;5095528;28;20020;-68
2022/02/22 13:57:06;;;;;;;7.15;3.13;;;12.10;75.30;;;;;;5095478;28;20107;-70
2022/02/22 13:59:38;;;;;;;9.38;4.57;;;11.90;76.60;;;;;;5094730;28;20400;-69
2022/02/22 14:02:06;;;;;;;6.60;2.85;;;11.70;79.10;;;;;;5095127;28;20040;-67
2022/02/22 14:04:36;;;;;;;13.32;5.63;;;11.50;78.00;;;;;;5094882;28;20039;-67
2022/02/22 14:07:06;;;;;;;10.40;5.78;;;11.50;80.50;;;;;;5099943;28;20024;-67
2022/02/22 14:09:33;;;;;;;7.90;3.40;;;11.60;81.40;;;;;;5114057;28;20372;-67
2022/02/22 14:11:59;;;;;;;9.38;3.05;;;;;;;;;;5114972;28;20071;-68
2022/02/22 14:14:25;;;;;;;10.98;4.03;;;;;;;;;;5096192;28;20048;-64